createdAt,value
2018-08-24T00:00:04.677Z,22.72
2018-08-24T00:05:59.744Z,21.91
2018-08-24T00:11:54.692Z,21.71
2018-08-24T00:17:49.671Z,21.7
2018-08-24T00:23:44.712Z,19.12
2018-08-24T00:29:39.713Z,26.97
2018-08-24T00:35:34.787Z,17.48
2018-08-24T00:41:29.693Z,20.96
2018-08-24T00:47:24.718Z,18.36
2018-08-24T00:53:19.704Z,18.65
2018-08-24T00:59:14.715Z,18.45
2018-08-24T01:05:09.723Z,19.1
2018-08-24T01:11:04.699Z,22.81
2018-08-24T01:16:59.719Z,21.8
2018-08-24T01:22:54.762Z,19.28
2018-08-24T01:28:49.730Z,18.68
2018-08-24T01:34:44.712Z,19.04
2018-08-24T01:40:39.761Z,20.73
2018-08-24T01:46:34.789Z,18.73
2018-08-24T01:52:29.788Z,19.92
2018-08-24T01:58:24.761Z,20.9
2018-08-24T02:04:19.759Z,20.37
2018-08-24T02:10:14.749Z,18.7
2018-08-24T02:16:09.827Z,17.62
2018-08-24T02:22:04.794Z,22.63
2018-08-24T02:27:59.786Z,20.32
2018-08-24T02:33:54.828Z,20.12
2018-08-24T02:39:49.769Z,19.55
2018-08-24T02:45:44.788Z,20.38
2018-08-24T02:51:39.780Z,21.41
2018-08-24T02:57:34.810Z,20.39
2018-08-24T03:03:29.803Z,17.39
2018-08-24T03:09:24.797Z,18.97
2018-08-24T03:15:19.813Z,19.67
2018-08-24T03:21:14.813Z,20.24
2018-08-24T03:27:09.850Z,20.18
2018-08-24T03:33:04.797Z,20.78
2018-08-24T03:38:59.831Z,21.37
2018-08-24T03:44:54.845Z,28.42
2018-08-24T03:50:49.824Z,23.49
2018-08-24T03:56:44.856Z,18.06
2018-08-24T04:02:39.819Z,19.75
2018-08-24T04:08:34.827Z,19.33
2018-08-24T04:14:29.843Z,21.25
2018-08-24T04:20:24.833Z,23.15
2018-08-24T04:26:19.830Z,18.84
2018-08-24T04:32:14.853Z,22.71
2018-08-24T04:38:09.859Z,22.22
2018-08-24T04:44:04.870Z,23.3
2018-08-24T04:49:59.860Z,20.94
2018-08-24T04:55:54.871Z,20.51
2018-08-24T05:01:49.853Z,23.67
2018-08-24T05:07:44.908Z,22.1
2018-08-24T05:13:39.857Z,21.85
2018-08-24T05:19:34.887Z,25.09
2018-08-24T05:25:29.890Z,22.77
2018-08-24T05:31:24.902Z,85.79
2018-08-24T05:37:19.873Z,43.7
2018-08-24T05:43:14.890Z,28.11
2018-08-24T05:49:09.901Z,20.3
2018-08-24T05:55:04.900Z,25.17
2018-08-24T06:00:59.893Z,24.98
2018-08-24T06:06:54.886Z,28.71
2018-08-24T06:12:49.885Z,24.49
2018-08-24T06:18:44.904Z,25.79
2018-08-24T06:24:39.934Z,24.3
2018-08-24T06:30:34.897Z,26.64
2018-08-24T06:36:29.919Z,20.36
2018-08-24T06:42:24.947Z,21.07
2018-08-24T06:48:19.926Z,21.46
2018-08-24T06:54:14.912Z,15.92
2018-08-24T07:00:09.927Z,19.45
2018-08-24T07:06:04.970Z,20.08
2018-08-24T07:11:59.951Z,20.53
2018-08-24T07:17:54.930Z,18.9
2018-08-24T07:23:49.944Z,18.06
2018-08-24T07:29:44.940Z,17.13
2018-08-24T07:35:39.958Z,19.69
2018-08-24T07:41:35.079Z,17.42
2018-08-24T07:47:29.962Z,20.99
2018-08-24T07:53:24.961Z,17.66
2018-08-24T07:59:19.948Z,17.05
2018-08-24T08:05:15.014Z,17.6
2018-08-24T08:11:09.989Z,15.96
2018-08-24T08:17:04.982Z,19.31
2018-08-24T08:22:59.976Z,17.47
2018-08-24T08:28:55.009Z,20.13
2018-08-24T08:34:49.982Z,16.46
2018-08-24T08:40:44.999Z,17.38
2018-08-24T08:46:40.001Z,20.33
2018-08-24T08:52:35.030Z,17.67
2018-08-24T08:58:30.043Z,18.31
2018-08-24T09:04:25.024Z,21.14
2018-08-24T09:10:20.018Z,18.13
2018-08-24T09:16:14.999Z,22.85
2018-08-24T09:22:10.010Z,16.41
2018-08-24T09:28:05.053Z,17.4
2018-08-24T09:34:00.028Z,18.4
2018-08-24T09:39:55.031Z,19.13
2018-08-24T09:45:50.026Z,18.72
2018-08-24T09:51:45.084Z,16.63
2018-08-24T09:57:40.027Z,18.96
2018-08-24T10:03:35.076Z,20.13
2018-08-24T10:09:30.084Z,16.28
2018-08-24T10:15:25.098Z,18.39
2018-08-24T10:21:20.043Z,16.85
2018-08-24T10:27:15.070Z,14.13
2018-08-24T10:33:10.074Z,22.49
2018-08-24T10:39:05.147Z,19.53
2018-08-24T10:45:00.063Z,17.84
2018-08-24T10:50:55.052Z,16.92
2018-08-24T10:56:50.086Z,15.32
2018-08-24T11:02:45.079Z,17.9
2018-08-24T11:08:40.079Z,15.12
2018-08-24T11:14:35.107Z,15.54
2018-08-24T11:20:30.127Z,13.51
2018-08-24T11:26:25.099Z,13.45
2018-08-24T11:32:20.100Z,14.29
2018-08-24T11:38:15.111Z,18.49
2018-08-24T11:44:10.118Z,15.72
2018-08-24T11:50:05.108Z,14.12
2018-08-24T11:56:00.114Z,14.73
2018-08-24T12:01:55.145Z,14.36
2018-08-24T12:07:50.141Z,13.56
2018-08-24T12:13:45.216Z,13.93
2018-08-24T12:19:40.164Z,10.9
2018-08-24T12:25:35.196Z,9.41
2018-08-24T12:31:30.168Z,12.03
2018-08-24T12:37:25.122Z,8.02
2018-08-24T12:43:20.142Z,7.73
2018-08-24T12:49:15.165Z,7.2
2018-08-24T12:55:10.163Z,7.32
2018-08-24T13:01:05.150Z,7.23
2018-08-24T13:07:00.146Z,6.87
2018-08-24T13:12:55.185Z,6.82
2018-08-24T13:18:50.185Z,6.09
2018-08-24T13:24:45.158Z,6.1
2018-08-24T13:30:40.166Z,5.58
2018-08-24T13:36:35.197Z,6.93
2018-08-24T13:42:30.176Z,6.89
2018-08-24T13:48:25.185Z,5.17
2018-08-24T13:54:20.172Z,6.55
2018-08-24T14:00:15.187Z,6.3
2018-08-24T14:06:10.219Z,8.14
2018-08-24T14:12:05.216Z,7.5
2018-08-24T14:18:00.239Z,5.91
2018-08-24T14:23:55.204Z,5.8
2018-08-24T14:29:50.221Z,5.83
2018-08-24T14:35:45.253Z,7.84
2018-08-24T14:41:40.237Z,6.37
2018-08-24T14:47:35.201Z,9.82
2018-08-24T14:53:30.225Z,7.42
2018-08-24T14:59:25.276Z,8.16
2018-08-24T15:05:20.229Z,6.77
2018-08-24T15:11:15.359Z,10.93
2018-08-24T15:17:10.228Z,6.79
2018-08-24T15:23:05.384Z,7.07
2018-08-24T15:29:00.248Z,6.56
2018-08-24T15:34:55.255Z,6.36
2018-08-24T15:40:50.297Z,8.23
2018-08-24T15:46:45.283Z,9.37
2018-08-24T15:52:40.257Z,10.34
2018-08-24T15:58:35.267Z,7.12
2018-08-24T16:04:30.258Z,7.13
2018-08-24T16:10:25.313Z,8.93
2018-08-24T16:16:20.322Z,8.92
2018-08-24T16:22:15.386Z,8.7
2018-08-24T16:28:10.289Z,9.77
2018-08-24T16:34:05.320Z,10.51
2018-08-24T16:40:00.304Z,8.48
2018-08-24T16:45:55.303Z,8.33
2018-08-24T16:51:50.305Z,10.8
2018-08-24T16:57:45.363Z,10.85
2018-08-24T17:03:40.339Z,10.75
2018-08-24T17:09:35.346Z,11.92
2018-08-24T17:15:30.340Z,9.97
2018-08-24T17:21:25.357Z,11.54
2018-08-24T17:27:20.335Z,13.79
2018-08-24T17:33:15.344Z,11.26
2018-08-24T17:39:10.328Z,12.69
2018-08-24T17:45:05.335Z,10.63
2018-08-24T17:51:00.340Z,13.37
2018-08-24T17:56:55.342Z,11.77
2018-08-24T18:02:50.356Z,12.54
2018-08-24T18:08:45.370Z,12.21
2018-08-24T18:14:40.394Z,18.9
2018-08-24T18:20:35.390Z,13.37
2018-08-24T18:26:30.363Z,14.38
2018-08-24T18:32:25.391Z,13.57
2018-08-24T18:38:20.362Z,12.59
2018-08-24T18:44:15.373Z,15.33
2018-08-24T18:50:10.369Z,14.7
2018-08-24T18:56:05.389Z,15.66
2018-08-24T19:02:00.396Z,14.46
2018-08-24T19:07:55.388Z,14.28
2018-08-24T19:13:50.448Z,15.13
2018-08-24T19:19:45.393Z,16.32
2018-08-24T19:25:40.383Z,15.34
2018-08-24T19:31:35.408Z,16.16
2018-08-24T19:37:30.451Z,15.48
2018-08-24T19:43:25.408Z,17.3
2018-08-24T19:49:20.484Z,17.19
2018-08-24T19:55:15.492Z,19.15
2018-08-24T20:01:10.442Z,17.97
2018-08-24T20:07:05.428Z,17.94
2018-08-24T20:13:00.436Z,19.62
2018-08-24T20:18:55.429Z,22.7
2018-08-24T20:24:50.430Z,25.58
2018-08-24T20:30:45.430Z,20.55
2018-08-24T20:36:40.432Z,20.73
2018-08-24T20:42:35.538Z,21.63
2018-08-24T20:48:30.432Z,21.46
2018-08-24T20:54:25.448Z,22.22
2018-08-24T21:00:20.445Z,22.04
2018-08-24T21:06:15.464Z,20.56
2018-08-24T21:12:10.486Z,19.28
2018-08-24T21:18:05.489Z,31.96
2018-08-24T21:24:00.485Z,25.78
2018-08-24T21:29:55.520Z,47.96
2018-08-24T21:35:50.467Z,24.06
2018-08-24T21:41:45.473Z,20.25
2018-08-24T21:47:40.529Z,27.22
2018-08-24T21:53:35.500Z,20.99
2018-08-24T21:59:30.507Z,24.65
2018-08-24T22:05:25.496Z,21.05
2018-08-24T22:11:20.512Z,21.8
2018-08-24T22:17:15.529Z,24.95
2018-08-24T22:23:10.514Z,23.96
2018-08-24T22:29:05.547Z,21.29
2018-08-24T22:35:00.497Z,26.28
2018-08-24T22:40:55.520Z,26.22
2018-08-24T22:46:50.538Z,20.73
2018-08-24T22:52:45.527Z,23.63
2018-08-24T22:58:40.520Z,28.33
2018-08-24T23:04:35.525Z,21.67
2018-08-24T23:10:30.533Z,21.18
2018-08-24T23:16:25.535Z,22.3
2018-08-24T23:22:20.558Z,19.82
2018-08-24T23:28:15.563Z,21.84
2018-08-24T23:34:10.646Z,19.76
2018-08-24T23:40:05.588Z,21.47
2018-08-24T23:46:00.593Z,26.06
2018-08-24T23:51:55.572Z,24.39
2018-08-24T23:57:50.573Z,25.43
